sensor_id;sensor_type;location;lat;lon;timestamp;pressure;altitude;pressure_sealevel;temperature;humidity
63306;BME280;50735;52.060;1.248;2023-06-22T00:00:05;101534.91;;;20.62;45.94
63306;BME280;50735;52.060;1.248;2023-06-22T00:02:37;101538.17;;;20.40;45.97
63306;BME280;50735;52.060;1.248;2023-06-22T00:05:09;101540.30;;;20.59;45.87
63306;BME280;50735;52.060;1.248;2023-06-22T00:07:41;101537.70;;;20.56;45.91
63306;BME280;50735;52.060;1.248;2023-06-22T00:10:12;101538.62;;;20.55;45.87
63306;BME280;50735;52.060;1.248;2023-06-22T00:12:44;101542.36;;;20.50;46.21
63306;BME280;50735;52.060;1.248;2023-06-22T00:15:16;101541.46;;;20.39;46.15
63306;BME280;50735;52.060;1.248;2023-06-22T00:17:51;101542.34;;;20.31;46.36
63306;BME280;50735;52.060;1.248;2023-06-22T00:20:23;101542.70;;;20.22;46.34
63306;BME280;50735;52.060;1.248;2023-06-22T00:22:56;101542.32;;;20.15;46.42
63306;BME280;50735;52.060;1.248;2023-06-22T00:25:28;101539.34;;;20.11;46.41
63306;BME280;50735;52.060;1.248;2023-06-22T00:28:00;101541.33;;;20.08;46.36
63306;BME280;50735;52.060;1.248;2023-06-22T00:30:32;101540.59;;;20.22;46.35
63306;BME280;50735;52.060;1.248;2023-06-22T00:33:04;101546.74;;;19.99;46.33
63306;BME280;50735;52.060;1.248;2023-06-22T00:35:36;101548.94;;;19.95;46.43
63306;BME280;50735;52.060;1.248;2023-06-22T00:38:08;101544.04;;;20.07;46.42
63306;BME280;50735;52.060;1.248;2023-06-22T00:40:39;101541.78;;;19.81;46.53
63306;BME280;50735;52.060;1.248;2023-06-22T00:43:11;101537.63;;;19.99;46.67
63306;BME280;50735;52.060;1.248;2023-06-22T00:45:43;101538.59;;;19.76;46.55
63306;BME280;50735;52.060;1.248;2023-06-22T00:48:15;101536.69;;;19.75;46.87
63306;BME280;50735;52.060;1.248;2023-06-22T00:50:47;101537.90;;;19.66;46.72
63306;BME280;50735;52.060;1.248;2023-06-22T00:53:19;101541.72;;;19.61;46.70
63306;BME280;50735;52.060;1.248;2023-06-22T00:55:51;101548.16;;;19.56;46.72
63306;BME280;50735;52.060;1.248;2023-06-22T00:58:23;101548.94;;;19.88;46.75
63306;BME280;50735;52.060;1.248;2023-06-22T01:00:55;101549.46;;;19.62;46.79
63306;BME280;50735;52.060;1.248;2023-06-22T01:03:27;101548.87;;;19.42;46.89
63306;BME280;50735;52.060;1.248;2023-06-22T01:06:02;101542.78;;;19.78;46.95
63306;BME280;50735;52.060;1.248;2023-06-22T01:08:44;101538.93;;;19.56;46.95
63306;BME280;50735;52.060;1.248;2023-06-22T01:11:21;101534.91;;;19.61;47.08
63306;BME280;50735;52.060;1.248;2023-06-22T01:14:02;101539.01;;;19.34;47.27
63306;BME280;50735;52.060;1.248;2023-06-22T01:16:41;101538.56;;;19.48;47.18
63306;BME280;50735;52.060;1.248;2023-06-22T01:19:25;101537.67;;;19.50;47.20
63306;BME280;50735;52.060;1.248;2023-06-22T01:22:01;101533.15;;;19.49;47.14
63306;BME280;50735;52.060;1.248;2023-06-22T01:24:45;101529.24;;;19.48;47.12
63306;BME280;50735;52.060;1.248;2023-06-22T01:27:31;101525.99;;;19.45;47.11
63306;BME280;50735;52.060;1.248;2023-06-22T01:30:05;101521.91;;;19.42;47.20
63306;BME280;50735;52.060;1.248;2023-06-22T01:32:39;101523.87;;;19.40;47.26
63306;BME280;50735;52.060;1.248;2023-06-22T01:35:12;101528.43;;;19.37;47.33
63306;BME280;50735;52.060;1.248;2023-06-22T01:37:45;101533.90;;;19.33;47.35
63306;BME280;50735;52.060;1.248;2023-06-22T01:40:19;101536.84;;;19.29;47.49
63306;BME280;50735;52.060;1.248;2023-06-22T01:42:52;101543.69;;;19.24;47.44
63306;BME280;50735;52.060;1.248;2023-06-22T01:45:25;101543.55;;;19.20;47.58
63306;BME280;50735;52.060;1.248;2023-06-22T01:47:58;101545.38;;;19.39;47.57
63306;BME280;50735;52.060;1.248;2023-06-22T01:50:31;101546.53;;;19.18;47.67
63306;BME280;50735;52.060;1.248;2023-06-22T01:53:03;101548.85;;;19.17;47.76
63306;BME280;50735;52.060;1.248;2023-06-22T01:55:35;101548.64;;;19.35;47.72
63306;BME280;50735;52.060;1.248;2023-06-22T01:58:06;101552.93;;;19.11;47.73
63306;BME280;50735;52.060;1.248;2023-06-22T02:00:40;101556.10;;;19.08;47.84
63306;BME280;50735;52.060;1.248;2023-06-22T02:03:16;101553.04;;;19.06;48.07
63306;BME280;50735;52.060;1.248;2023-06-22T02:05:52;101553.49;;;19.00;47.87
63306;BME280;50735;52.060;1.248;2023-06-22T02:08:28;101551.47;;;18.95;48.17
63306;BME280;50735;52.060;1.248;2023-06-22T02:11:02;101552.97;;;19.13;48.22
63306;BME280;50735;52.060;1.248;2023-06-22T02:13:36;101548.67;;;19.12;48.24
63306;BME280;50735;52.060;1.248;2023-06-22T02:16:07;101547.32;;;18.87;48.22
63306;BME280;50735;52.060;1.248;2023-06-22T02:18:46;101546.69;;;18.85;48.28
63306;BME280;50735;52.060;1.248;2023-06-22T02:21:18;101548.26;;;19.21;48.23
63306;BME280;50735;52.060;1.248;2023-06-22T02:23:50;101546.18;;;19.00;48.31
63306;BME280;50735;52.060;1.248;2023-06-22T02:26:23;101544.38;;;19.17;48.34
63306;BME280;50735;52.060;1.248;2023-06-22T02:28:56;101543.14;;;18.76;48.39
63306;BME280;50735;52.060;1.248;2023-06-22T02:31:28;101546.82;;;18.75;48.40
63306;BME280;50735;52.060;1.248;2023-06-22T02:34:00;101548.71;;;18.72;48.46
63306;BME280;50735;52.060;1.248;2023-06-22T02:36:32;101550.97;;;18.67;48.49
63306;BME280;50735;52.060;1.248;2023-06-22T02:39:04;101551.00;;;18.64;48.49
63306;BME280;50735;52.060;1.248;2023-06-22T02:41:36;101550.76;;;18.83;48.64
63306;BME280;50735;52.060;1.248;2023-06-22T02:44:08;101549.97;;;18.81;48.55
63306;BME280;50735;52.060;1.248;2023-06-22T02:46:40;101549.83;;;18.78;48.75
63306;BME280;50735;52.060;1.248;2023-06-22T02:49:12;101546.43;;;18.78;48.71
63306;BME280;50735;52.060;1.248;2023-06-22T02:51:46;101544.50;;;18.87;48.52
63306;BME280;50735;52.060;1.248;2023-06-22T02:54:18;101543.35;;;18.81;48.63
63306;BME280;50735;52.060;1.248;2023-06-22T02:56:51;101541.02;;;18.59;48.68
63306;BME280;50735;52.060;1.248;2023-06-22T02:59:22;101539.78;;;18.33;48.80
63306;BME280;50735;52.060;1.248;2023-06-22T03:01:55;101538.77;;;18.66;48.79
63306;BME280;50735;52.060;1.248;2023-06-22T03:04:26;101536.09;;;18.42;48.69
63306;BME280;50735;52.060;1.248;2023-06-22T03:06:58;101527.73;;;18.56;48.98
63306;BME280;50735;52.060;1.248;2023-06-22T03:09:29;101526.22;;;18.49;48.80
63306;BME280;50735;52.060;1.248;2023-06-22T03:12:02;101523.57;;;18.43;49.05
63306;BME280;50735;52.060;1.248;2023-06-22T03:14:34;101526.37;;;18.18;49.01
63306;BME280;50735;52.060;1.248;2023-06-22T03:17:06;101527.75;;;18.31;49.46
63306;BME280;50735;52.060;1.248;2023-06-22T03:19:38;101529.22;;;18.27;49.57
63306;BME280;50735;52.060;1.248;2023-06-22T03:22:10;101531.30;;;18.21;49.30
63306;BME280;50735;52.060;1.248;2023-06-22T03:24:42;101533.59;;;18.14;49.39
63306;BME280;50735;52.060;1.248;2023-06-22T03:27:14;101535.55;;;17.92;49.22
63306;BME280;50735;52.060;1.248;2023-06-22T03:29:46;101537.61;;;18.08;49.15
63306;BME280;50735;52.060;1.248;2023-06-22T03:32:17;101534.16;;;18.29;49.86
63306;BME280;50735;52.060;1.248;2023-06-22T03:34:49;101528.72;;;17.96;49.99
63306;BME280;50735;52.060;1.248;2023-06-22T03:37:21;101531.10;;;17.86;49.45
63306;BME280;50735;52.060;1.248;2023-06-22T03:39:53;101531.57;;;17.83;49.50
63306;BME280;50735;52.060;1.248;2023-06-22T03:42:26;101531.32;;;17.79;50.22
63306;BME280;50735;52.060;1.248;2023-06-22T03:44:57;101533.87;;;17.68;50.14
63306;BME280;50735;52.060;1.248;2023-06-22T03:47:29;101529.94;;;17.62;49.91
63306;BME280;50735;52.060;1.248;2023-06-22T03:50:01;101525.21;;;17.58;49.78
63306;BME280;50735;52.060;1.248;2023-06-22T03:52:33;101525.45;;;17.58;49.96
63306;BME280;50735;52.060;1.248;2023-06-22T03:55:06;101523.87;;;17.53;50.18
63306;BME280;50735;52.060;1.248;2023-06-22T03:57:38;101519.90;;;17.48;50.70
63306;BME280;50735;52.060;1.248;2023-06-22T04:00:11;101513.10;;;17.86;50.34
63306;BME280;50735;52.060;1.248;2023-06-22T04:02:43;101518.71;;;17.45;50.86
63306;BME280;50735;52.060;1.248;2023-06-22T04:05:14;101521.20;;;17.42;50.79
63306;BME280;50735;52.060;1.248;2023-06-22T04:07:47;101518.04;;;17.39;50.32
63306;BME280;50735;52.060;1.248;2023-06-22T04:10:18;101518.29;;;17.41;50.46
63306;BME280;50735;52.060;1.248;2023-06-22T04:12:50;101518.28;;;17.67;50.79
63306;BME280;50735;52.060;1.248;2023-06-22T04:15:22;101519.25;;;17.64;50.63
63306;BME280;50735;52.060;1.248;2023-06-22T04:17:55;101520.84;;;17.59;51.60
63306;BME280;50735;52.060;1.248;2023-06-22T04:20:27;101524.95;;;17.28;51.76
63306;BME280;50735;52.060;1.248;2023-06-22T04:22:59;101532.99;;;17.47;52.11
63306;BME280;50735;52.060;1.248;2023-06-22T04:25:31;101536.59;;;17.24;51.29
63306;BME280;50735;52.060;1.248;2023-06-22T04:28:02;101542.39;;;17.48;51.17
63306;BME280;50735;52.060;1.248;2023-06-22T04:30:34;101542.91;;;17.54;51.23
63306;BME280;50735;52.060;1.248;2023-06-22T04:33:06;101543.61;;;17.70;51.50
63306;BME280;50735;52.060;1.248;2023-06-22T04:35:37;101551.14;;;17.57;52.68
63306;BME280;50735;52.060;1.248;2023-06-22T04:38:09;101551.20;;;17.61;52.09
63306;BME280;50735;52.060;1.248;2023-06-22T04:40:41;101546.33;;;17.63;52.53
63306;BME280;50735;52.060;1.248;2023-06-22T04:43:13;101551.28;;;17.27;52.02
63306;BME280;50735;52.060;1.248;2023-06-22T04:45:44;101552.40;;;17.52;52.09
63306;BME280;50735;52.060;1.248;2023-06-22T04:48:16;101553.95;;;17.36;52.75
63306;BME280;50735;52.060;1.248;2023-06-22T04:50:48;101545.03;;;17.39;52.16
63306;BME280;50735;52.060;1.248;2023-06-22T04:53:20;101538.40;;;17.48;52.94
63306;BME280;50735;52.060;1.248;2023-06-22T04:55:51;101532.23;;;17.49;53.06
63306;BME280;50735;52.060;1.248;2023-06-22T04:58:23;101534.46;;;17.75;52.73
63306;BME280;50735;52.060;1.248;2023-06-22T05:00:55;101537.01;;;17.61;52.38
63306;BME280;50735;52.060;1.248;2023-06-22T05:03:27;101546.80;;;17.28;53.54
63306;BME280;50735;52.060;1.248;2023-06-22T05:05:58;101546.99;;;17.64;52.93
63306;BME280;50735;52.060;1.248;2023-06-22T05:08:30;101542.69;;;17.56;53.28
63306;BME280;50735;52.060;1.248;2023-06-22T05:11:02;101537.18;;;17.67;52.75
63306;BME280;50735;52.060;1.248;2023-06-22T05:13:34;101535.96;;;17.86;52.85
63306;BME280;50735;52.060;1.248;2023-06-22T05:16:06;101532.39;;;17.94;53.09
63306;BME280;50735;52.060;1.248;2023-06-22T05:18:38;101531.38;;;17.85;53.24
63306;BME280;50735;52.060;1.248;2023-06-22T05:21:10;101532.77;;;17.84;53.24
63306;BME280;50735;52.060;1.248;2023-06-22T05:23:42;101534.86;;;18.07;52.81
63306;BME280;50735;52.060;1.248;2023-06-22T05:26:14;101535.61;;;18.12;52.70
63306;BME280;50735;52.060;1.248;2023-06-22T05:28:46;101538.64;;;18.32;52.11
63306;BME280;50735;52.060;1.248;2023-06-22T05:31:19;101541.48;;;18.41;52.55
63306;BME280;50735;52.060;1.248;2023-06-22T05:33:52;101541.90;;;18.30;52.03
63306;BME280;50735;52.060;1.248;2023-06-22T05:36:24;101543.37;;;18.51;51.82
63306;BME280;50735;52.060;1.248;2023-06-22T05:38:57;101543.23;;;18.48;51.51
63306;BME280;50735;52.060;1.248;2023-06-22T05:41:29;101542.26;;;18.90;51.30
63306;BME280;50735;52.060;1.248;2023-06-22T05:44:00;101545.25;;;19.07;51.43
63306;BME280;50735;52.060;1.248;2023-06-22T05:46:32;101542.56;;;19.15;51.36
63306;BME280;50735;52.060;1.248;2023-06-22T05:49:04;101544.80;;;19.19;51.41
63306;BME280;50735;52.060;1.248;2023-06-22T05:51:36;101544.16;;;19.33;51.42
63306;BME280;50735;52.060;1.248;2023-06-22T05:54:08;101544.12;;;19.21;50.86
63306;BME280;50735;52.060;1.248;2023-06-22T05:56:40;101549.53;;;19.10;51.00
63306;BME280;50735;52.060;1.248;2023-06-22T05:59:11;101548.27;;;19.20;51.56
63306;BME280;50735;52.060;1.248;2023-06-22T06:01:43;101544.63;;;19.25;51.40
63306;BME280;50735;52.060;1.248;2023-06-22T06:04:15;101542.35;;;19.27;51.34
63306;BME280;50735;52.060;1.248;2023-06-22T06:06:46;101539.81;;;19.30;51.54
63306;BME280;50735;52.060;1.248;2023-06-22T06:09:18;101545.23;;;19.35;51.61
63306;BME280;50735;52.060;1.248;2023-06-22T06:11:50;101549.20;;;19.43;51.76
63306;BME280;50735;52.060;1.248;2023-06-22T06:14:22;101552.09;;;19.21;51.42
63306;BME280;50735;52.060;1.248;2023-06-22T06:16:54;101552.12;;;19.66;50.58
63306;BME280;50735;52.060;1.248;2023-06-22T06:19:26;101554.82;;;19.90;50.33
63306;BME280;50735;52.060;1.248;2023-06-22T06:21:58;101551.23;;;19.36;50.29
63306;BME280;50735;52.060;1.248;2023-06-22T06:24:29;101552.23;;;19.53;50.35
63306;BME280;50735;52.060;1.248;2023-06-22T06:27:02;101556.82;;;19.69;50.40
63306;BME280;50735;52.060;1.248;2023-06-22T06:29:34;101558.23;;;19.95;49.88
63306;BME280;50735;52.060;1.248;2023-06-22T06:32:07;101558.03;;;19.95;49.62
63306;BME280;50735;52.060;1.248;2023-06-22T06:34:39;101554.13;;;20.07;49.41
63306;BME280;50735;52.060;1.248;2023-06-22T06:37:11;101553.99;;;19.63;49.83
63306;BME280;50735;52.060;1.248;2023-06-22T06:39:42;101558.11;;;19.93;49.52
63306;BME280;50735;52.060;1.248;2023-06-22T06:42:15;101560.31;;;20.00;49.55
63306;BME280;50735;52.060;1.248;2023-06-22T06:44:47;101560.96;;;19.93;49.57
63306;BME280;50735;52.060;1.248;2023-06-22T06:47:19;101561.17;;;20.02;49.71
63306;BME280;50735;52.060;1.248;2023-06-22T06:49:51;101559.28;;;19.95;50.10
63306;BME280;50735;52.060;1.248;2023-06-22T06:52:23;101560.00;;;19.83;49.71
63306;BME280;50735;52.060;1.248;2023-06-22T06:54:55;101563.39;;;20.25;49.48
63306;BME280;50735;52.060;1.248;2023-06-22T06:57:27;101564.04;;;20.44;49.49
63306;BME280;50735;52.060;1.248;2023-06-22T06:59:59;101564.23;;;20.26;50.17
63306;BME280;50735;52.060;1.248;2023-06-22T07:02:31;101567.28;;;20.48;49.38
63306;BME280;50735;52.060;1.248;2023-06-22T07:05:04;101566.48;;;20.40;49.20
63306;BME280;50735;52.060;1.248;2023-06-22T07:07:37;101560.34;;;20.83;49.29
63306;BME280;50735;52.060;1.248;2023-06-22T07:10:10;101561.13;;;20.74;49.11
63306;BME280;50735;52.060;1.248;2023-06-22T07:12:42;101558.15;;;20.74;49.38
63306;BME280;50735;52.060;1.248;2023-06-22T07:15:14;101553.79;;;20.91;48.62
63306;BME280;50735;52.060;1.248;2023-06-22T07:17:46;101551.87;;;20.53;49.08
63306;BME280;50735;52.060;1.248;2023-06-22T07:20:18;101549.76;;;20.42;48.86
63306;BME280;50735;52.060;1.248;2023-06-22T07:22:51;101549.48;;;20.61;48.65
63306;BME280;50735;52.060;1.248;2023-06-22T07:25:23;101549.32;;;21.24;48.51
63306;BME280;50735;52.060;1.248;2023-06-22T07:27:58;101548.54;;;21.02;47.46
63306;BME280;50735;52.060;1.248;2023-06-22T07:30:31;101544.47;;;21.22;46.96
63306;BME280;50735;52.060;1.248;2023-06-22T07:33:03;101541.16;;;21.51;46.54
63306;BME280;50735;52.060;1.248;2023-06-22T07:35:36;101539.13;;;21.87;45.17
63306;BME280;50735;52.060;1.248;2023-06-22T07:38:07;101543.21;;;21.62;45.21
63306;BME280;50735;52.060;1.248;2023-06-22T07:40:39;101538.52;;;22.13;44.53
63306;BME280;50735;52.060;1.248;2023-06-22T07:43:11;101536.15;;;22.50;44.45
63306;BME280;50735;52.060;1.248;2023-06-22T07:45:48;101536.41;;;22.39;42.50
63306;BME280;50735;52.060;1.248;2023-06-22T07:48:20;101537.03;;;22.90;41.69
63306;BME280;50735;52.060;1.248;2023-06-22T07:50:52;101535.36;;;23.27;40.87
63306;BME280;50735;52.060;1.248;2023-06-22T07:53:24;101537.09;;;22.94;40.84
63306;BME280;50735;52.060;1.248;2023-06-22T07:55:55;101534.75;;;23.40;40.90
63306;BME280;50735;52.060;1.248;2023-06-22T07:58:28;101533.96;;;23.06;39.84
63306;BME280;50735;52.060;1.248;2023-06-22T08:00:59;101536.41;;;23.84;40.43
63306;BME280;50735;52.060;1.248;2023-06-22T08:03:31;101535.99;;;24.57;39.84
63306;BME280;50735;52.060;1.248;2023-06-22T08:06:03;101536.15;;;24.60;37.87
63306;BME280;50735;52.060;1.248;2023-06-22T08:08:35;101533.42;;;24.89;36.93
63306;BME280;50735;52.060;1.248;2023-06-22T08:11:08;101534.92;;;24.99;36.48
63306;BME280;50735;52.060;1.248;2023-06-22T08:13:39;101536.17;;;25.26;37.06
63306;BME280;50735;52.060;1.248;2023-06-22T08:16:11;101532.65;;;25.29;36.08
63306;BME280;50735;52.060;1.248;2023-06-22T08:18:43;101529.50;;;25.48;35.37
63306;BME280;50735;52.060;1.248;2023-06-22T08:21:14;101531.45;;;25.45;33.14
63306;BME280;50735;52.060;1.248;2023-06-22T08:23:46;101533.76;;;25.27;33.74
63306;BME280;50735;52.060;1.248;2023-06-22T08:26:17;101531.58;;;25.41;33.64
63306;BME280;50735;52.060;1.248;2023-06-22T08:28:49;101531.33;;;25.55;34.00
63306;BME280;50735;52.060;1.248;2023-06-22T08:31:21;101533.49;;;25.07;33.97
63306;BME280;50735;52.060;1.248;2023-06-22T08:33:53;101530.08;;;25.16;34.12
63306;BME280;50735;52.060;1.248;2023-06-22T08:36:25;101530.21;;;25.45;33.42
63306;BME280;50735;52.060;1.248;2023-06-22T08:38:57;101534.00;;;25.30;33.87
63306;BME280;50735;52.060;1.248;2023-06-22T08:41:29;101534.18;;;25.73;33.81
63306;BME280;50735;52.060;1.248;2023-06-22T08:44:01;101532.83;;;25.49;33.92
63306;BME280;50735;52.060;1.248;2023-06-22T08:46:33;101537.69;;;25.70;34.13
63306;BME280;50735;52.060;1.248;2023-06-22T08:49:04;101536.11;;;25.95;33.92
63306;BME280;50735;52.060;1.248;2023-06-22T08:51:37;101533.66;;;25.67;33.84
63306;BME280;50735;52.060;1.248;2023-06-22T08:54:08;101533.62;;;25.82;34.20
63306;BME280;50735;52.060;1.248;2023-06-22T08:56:40;101530.24;;;25.89;33.42
63306;BME280;50735;52.060;1.248;2023-06-22T08:59:12;101532.72;;;26.23;33.72
63306;BME280;50735;52.060;1.248;2023-06-22T09:01:43;101534.28;;;26.16;33.32
63306;BME280;50735;52.060;1.248;2023-06-22T09:04:15;101533.00;;;26.21;34.08
63306;BME280;50735;52.060;1.248;2023-06-22T09:06:47;101532.47;;;25.77;34.02
63306;BME280;50735;52.060;1.248;2023-06-22T09:09:20;101533.14;;;25.54;33.89
63306;BME280;50735;52.060;1.248;2023-06-22T09:11:53;101532.54;;;25.78;33.04
63306;BME280;50735;52.060;1.248;2023-06-22T09:14:24;101532.11;;;25.82;33.15
63306;BME280;50735;52.060;1.248;2023-06-22T09:16:56;101539.07;;;25.49;34.88
63306;BME280;50735;52.060;1.248;2023-06-22T09:19:28;101541.14;;;25.73;34.82
63306;BME280;50735;52.060;1.248;2023-06-22T09:22:00;101546.92;;;25.72;34.94
63306;BME280;50735;52.060;1.248;2023-06-22T09:24:32;101554.68;;;25.35;35.17
63306;BME280;50735;52.060;1.248;2023-06-22T09:27:05;101552.09;;;25.31;35.59
63306;BME280;50735;52.060;1.248;2023-06-22T09:29:37;101555.60;;;25.50;35.58
63306;BME280;50735;52.060;1.248;2023-06-22T09:32:09;101555.85;;;25.22;35.71
63306;BME280;50735;52.060;1.248;2023-06-22T09:34:40;101556.98;;;25.61;35.29
63306;BME280;50735;52.060;1.248;2023-06-22T09:37:12;101560.08;;;25.70;34.75
63306;BME280;50735;52.060;1.248;2023-06-22T09:39:44;101554.83;;;25.66;34.47
63306;BME280;50735;52.060;1.248;2023-06-22T09:42:15;101555.83;;;26.13;34.20
63306;BME280;50735;52.060;1.248;2023-06-22T09:44:47;101551.69;;;26.61;33.16
63306;BME280;50735;52.060;1.248;2023-06-22T09:47:19;101546.81;;;27.07;33.04
63306;BME280;50735;52.060;1.248;2023-06-22T09:49:50;101546.10;;;27.58;33.47
63306;BME280;50735;52.060;1.248;2023-06-22T09:52:22;101543.47;;;27.88;32.35
63306;BME280;50735;52.060;1.248;2023-06-22T09:54:54;101544.76;;;27.92;31.02
63306;BME280;50735;52.060;1.248;2023-06-22T09:57:26;101541.54;;;27.86;30.19
63306;BME280;50735;52.060;1.248;2023-06-22T09:59:58;101542.29;;;27.49;29.87
63306;BME280;50735;52.060;1.248;2023-06-22T10:02:30;101538.90;;;27.68;30.15
63306;BME280;50735;52.060;1.248;2023-06-22T10:05:01;101542.24;;;27.68;30.29
63306;BME280;50735;52.060;1.248;2023-06-22T10:07:33;101547.74;;;28.16;29.96
63306;BME280;50735;52.060;1.248;2023-06-22T10:10:05;101546.49;;;28.15;29.48
63306;BME280;50735;52.060;1.248;2023-06-22T10:12:42;101538.67;;;28.88;28.72
63306;BME280;50735;52.060;1.248;2023-06-22T10:15:15;101537.44;;;28.98;27.06
63306;BME280;50735;52.060;1.248;2023-06-22T10:17:48;101532.44;;;28.76;28.04
63306;BME280;50735;52.060;1.248;2023-06-22T10:20:19;101532.78;;;28.63;28.35
63306;BME280;50735;52.060;1.248;2023-06-22T10:22:51;101529.72;;;28.95;28.48
63306;BME280;50735;52.060;1.248;2023-06-22T10:25:22;101531.26;;;28.90;27.68
63306;BME280;50735;52.060;1.248;2023-06-22T10:27:54;101533.30;;;29.36;27.61
63306;BME280;50735;52.060;1.248;2023-06-22T10:30:26;101535.20;;;29.58;27.48
63306;BME280;50735;52.060;1.248;2023-06-22T10:32:57;101532.79;;;29.21;25.74
63306;BME280;50735;52.060;1.248;2023-06-22T10:35:29;101530.82;;;29.07;26.40
63306;BME280;50735;52.060;1.248;2023-06-22T10:38:01;101525.81;;;28.51;27.89
63306;BME280;50735;52.060;1.248;2023-06-22T10:40:33;101524.18;;;28.30;28.74
63306;BME280;50735;52.060;1.248;2023-06-22T10:43:05;101528.09;;;28.29;29.08
63306;BME280;50735;52.060;1.248;2023-06-22T10:45:36;101529.15;;;28.28;28.97
63306;BME280;50735;52.060;1.248;2023-06-22T10:48:08;101527.27;;;27.20;29.71
63306;BME280;50735;52.060;1.248;2023-06-22T10:50:40;101529.08;;;27.80;29.77
63306;BME280;50735;52.060;1.248;2023-06-22T10:53:11;101523.78;;;28.46;29.72
63306;BME280;50735;52.060;1.248;2023-06-22T10:55:43;101521.08;;;28.84;28.77
63306;BME280;50735;52.060;1.248;2023-06-22T10:58:15;101523.45;;;28.13;28.53
63306;BME280;50735;52.060;1.248;2023-06-22T11:00:46;101523.01;;;27.95;28.45
63306;BME280;50735;52.060;1.248;2023-06-22T11:03:18;101524.88;;;27.59;27.96
63306;BME280;50735;52.060;1.248;2023-06-22T11:05:49;101524.72;;;27.29;29.15
63306;BME280;50735;52.060;1.248;2023-06-22T11:08:21;101525.98;;;27.06;29.76
63306;BME280;50735;52.060;1.248;2023-06-22T11:10:53;101532.33;;;26.83;30.15
63306;BME280;50735;52.060;1.248;2023-06-22T11:13:24;101535.90;;;26.56;29.83
63306;BME280;50735;52.060;1.248;2023-06-22T11:15:56;101529.50;;;26.49;29.92
63306;BME280;50735;52.060;1.248;2023-06-22T11:18:28;101528.47;;;26.25;29.84
63306;BME280;50735;52.060;1.248;2023-06-22T11:20:59;101525.00;;;26.01;29.83
63306;BME280;50735;52.060;1.248;2023-06-22T11:23:31;101523.91;;;26.30;29.67
63306;BME280;50735;52.060;1.248;2023-06-22T11:26:04;101521.18;;;27.22;29.70
63306;BME280;50735;52.060;1.248;2023-06-22T11:28:35;101522.15;;;27.50;28.37
63306;BME280;50735;52.060;1.248;2023-06-22T11:31:07;101519.90;;;28.05;28.33
63306;BME280;50735;52.060;1.248;2023-06-22T11:33:39;101521.38;;;27.93;28.14
63306;BME280;50735;52.060;1.248;2023-06-22T11:36:10;101518.52;;;28.06;28.35
63306;BME280;50735;52.060;1.248;2023-06-22T11:38:42;101515.76;;;27.96;27.67
63306;BME280;50735;52.060;1.248;2023-06-22T11:41:14;101511.74;;;27.85;28.04
63306;BME280;50735;52.060;1.248;2023-06-22T11:43:45;101512.73;;;27.96;28.97
63306;BME280;50735;52.060;1.248;2023-06-22T11:46:17;101514.32;;;28.38;28.21
63306;BME280;50735;52.060;1.248;2023-06-22T11:48:49;101517.20;;;27.64;28.18
63306;BME280;50735;52.060;1.248;2023-06-22T11:51:21;101508.01;;;27.62;27.59
63306;BME280;50735;52.060;1.248;2023-06-22T11:53:53;101509.30;;;26.95;28.00
63306;BME280;50735;52.060;1.248;2023-06-22T11:56:25;101500.35;;;27.67;29.34
63306;BME280;50735;52.060;1.248;2023-06-22T11:58:57;101503.00;;;27.95;30.00
63306;BME280;50735;52.060;1.248;2023-06-22T12:01:29;101502.92;;;28.49;29.86
63306;BME280;50735;52.060;1.248;2023-06-22T12:04:00;101498.86;;;28.58;29.48
63306;BME280;50735;52.060;1.248;2023-06-22T12:06:32;101496.43;;;28.69;29.04
63306;BME280;50735;52.060;1.248;2023-06-22T12:09:03;101498.71;;;28.23;29.20
63306;BME280;50735;52.060;1.248;2023-06-22T12:11:35;101497.61;;;27.95;29.60
63306;BME280;50735;52.060;1.248;2023-06-22T12:14:07;101500.91;;;28.13;29.45
63306;BME280;50735;52.060;1.248;2023-06-22T12:16:38;101497.58;;;28.70;29.77
63306;BME280;50735;52.060;1.248;2023-06-22T12:19:11;101499.87;;;28.02;29.95
63306;BME280;50735;52.060;1.248;2023-06-22T12:21:42;101500.19;;;28.49;29.94
63306;BME280;50735;52.060;1.248;2023-06-22T12:24:14;101493.40;;;28.55;29.00
63306;BME280;50735;52.060;1.248;2023-06-22T12:26:46;101492.48;;;29.03;28.52
63306;BME280;50735;52.060;1.248;2023-06-22T12:29:17;101493.81;;;28.39;28.67
63306;BME280;50735;52.060;1.248;2023-06-22T12:31:49;101491.91;;;28.98;28.40
63306;BME280;50735;52.060;1.248;2023-06-22T12:34:21;101489.31;;;28.69;28.18
63306;BME280;50735;52.060;1.248;2023-06-22T12:36:53;101496.32;;;28.93;28.76
63306;BME280;50735;52.060;1.248;2023-06-22T12:39:25;101494.62;;;28.76;28.85
63306;BME280;50735;52.060;1.248;2023-06-22T12:41:57;101492.56;;;28.49;29.68
63306;BME280;50735;52.060;1.248;2023-06-22T12:44:28;101494.79;;;29.09;29.21
63306;BME280;50735;52.060;1.248;2023-06-22T12:47:00;101497.49;;;29.14;28.53
63306;BME280;50735;52.060;1.248;2023-06-22T12:49:32;101494.52;;;29.10;28.13
63306;BME280;50735;52.060;1.248;2023-06-22T12:52:08;101491.51;;;29.44;28.32
63306;BME280;50735;52.060;1.248;2023-06-22T12:54:41;101489.46;;;29.22;27.90
63306;BME280;50735;52.060;1.248;2023-06-22T12:57:13;101493.93;;;29.61;27.49
63306;BME280;50735;52.060;1.248;2023-06-22T12:59:45;101494.31;;;29.91;26.66
63306;BME280;50735;52.060;1.248;2023-06-22T13:02:17;101485.34;;;30.47;26.31
63306;BME280;50735;52.060;1.248;2023-06-22T13:04:49;101480.88;;;30.35;25.66
63306;BME280;50735;52.060;1.248;2023-06-22T13:07:20;101479.92;;;29.74;25.30
63306;BME280;50735;52.060;1.248;2023-06-22T13:09:52;101484.85;;;29.38;25.62
63306;BME280;50735;52.060;1.248;2023-06-22T13:12:24;101477.34;;;29.98;25.54
63306;BME280;50735;52.060;1.248;2023-06-22T13:14:55;101473.79;;;29.85;25.22